createdAt,value
2023-03-07T00:00:37.369Z,0.00
2023-03-07T00:01:37.357Z,0.00
2023-03-07T00:02:37.397Z,0.00
2023-03-07T00:03:37.367Z,0.00
2023-03-07T00:04:37.304Z,0.00
2023-03-07T00:05:37.305Z,0.00
2023-03-07T00:06:37.276Z,0.00
2023-03-07T00:07:37.259Z,0.00
2023-03-07T00:08:37.236Z,0.00
2023-03-07T00:09:37.225Z,0.00
2023-03-07T00:10:37.205Z,0.00
2023-03-07T00:11:37.214Z,0.00
2023-03-07T00:12:37.179Z,0.00
2023-03-07T00:13:37.162Z,0.00
2023-03-07T00:14:37.141Z,0.00
2023-03-07T00:15:37.126Z,0.00
2023-03-07T00:16:37.106Z,0.00
2023-03-07T00:17:37.094Z,0.00
2023-03-07T00:18:37.072Z,0.00
2023-03-07T00:19:37.064Z,0.00
2023-03-07T00:20:37.040Z,0.00
2023-03-07T00:21:37.046Z,0.00
2023-03-07T00:22:37.011Z,0.00
2023-03-07T00:23:36.996Z,0.00
2023-03-07T00:24:36.972Z,0.00
2023-03-07T00:25:36.965Z,0.00
2023-03-07T00:26:36.948Z,0.00
2023-03-07T00:27:36.952Z,0.00
2023-03-07T00:28:36.910Z,0.00
2023-03-07T00:29:36.896Z,0.00
2023-03-07T00:30:36.876Z,0.00
2023-03-07T00:31:36.911Z,0.00
2023-03-07T00:32:36.985Z,0.00
2023-03-07T00:33:36.834Z,0.00
2023-03-07T00:34:36.811Z,0.00
2023-03-07T00:35:36.817Z,0.00
2023-03-07T00:36:36.777Z,0.00
2023-03-07T00:37:36.766Z,0.00
2023-03-07T00:38:36.746Z,0.00
2023-03-07T00:39:36.732Z,0.00
2023-03-07T00:40:36.713Z,0.00
2023-03-07T00:41:36.701Z,0.00
2023-03-07T00:42:36.681Z,0.00
2023-03-07T00:43:36.694Z,0.00
2023-03-07T00:44:36.649Z,0.00
2023-03-07T00:45:36.658Z,0.00
2023-03-07T00:46:36.622Z,0.00
2023-03-07T00:47:36.602Z,0.00
2023-03-07T00:48:36.586Z,0.00
2023-03-07T00:49:36.569Z,0.00
2023-03-07T00:50:36.555Z,0.00
2023-03-07T00:51:36.538Z,0.00
2023-03-07T00:52:36.523Z,0.00
2023-03-07T00:53:36.511Z,0.00
2023-03-07T00:54:36.695Z,0.00
2023-03-07T00:55:36.478Z,0.00
2023-03-07T00:56:36.462Z,0.00
2023-03-07T00:57:36.441Z,0.00
2023-03-07T00:58:36.440Z,0.00
2023-03-07T00:59:36.429Z,0.00
2023-03-07T01:00:36.425Z,0.00
2023-03-07T01:01:36.373Z,0.00
2023-03-07T01:02:36.367Z,0.00
2023-03-07T01:03:36.351Z,0.00
2023-03-07T01:04:36.371Z,0.00
2023-03-07T01:05:36.308Z,0.00
2023-03-07T01:06:36.295Z,0.00
2023-03-07T01:07:36.280Z,0.00
2023-03-07T01:08:36.261Z,0.00
2023-03-07T01:09:36.242Z,0.00
2023-03-07T01:10:36.228Z,0.00
2023-03-07T01:11:36.221Z,0.00
2023-03-07T01:12:36.197Z,0.00
2023-03-07T01:13:36.176Z,0.00
2023-03-07T01:14:36.165Z,0.00
2023-03-07T01:15:36.165Z,0.00
2023-03-07T01:16:36.193Z,0.00
2023-03-07T01:17:36.118Z,0.00
2023-03-07T01:18:36.099Z,0.00
2023-03-07T01:19:36.079Z,0.00
2023-03-07T01:20:36.067Z,0.00
2023-03-07T01:21:36.050Z,0.00
2023-03-07T01:22:36.040Z,0.00
2023-03-07T01:23:36.014Z,0.00
2023-03-07T01:24:36.003Z,0.00
2023-03-07T01:25:35.982Z,0.00
2023-03-07T01:26:35.971Z,0.00
2023-03-07T01:27:35.950Z,0.00
2023-03-07T01:28:35.936Z,0.00
2023-03-07T01:29:35.917Z,0.00
2023-03-07T01:30:35.909Z,0.00
2023-03-07T01:31:36.016Z,0.00
2023-03-07T01:32:35.995Z,0.00
2023-03-07T01:33:35.854Z,0.00
2023-03-07T01:34:35.836Z,0.00
2023-03-07T01:35:35.855Z,0.00
2023-03-07T01:36:35.839Z,0.00
2023-03-07T01:37:35.786Z,0.00
2023-03-07T01:38:35.788Z,0.00
2023-03-07T01:39:35.775Z,0.00
2023-03-07T01:40:35.738Z,0.00
2023-03-07T01:41:35.724Z,0.00
2023-03-07T01:42:35.706Z,0.00
2023-03-07T01:43:35.692Z,0.00
2023-03-07T01:44:35.714Z,0.00
2023-03-07T01:45:35.688Z,0.00
2023-03-07T01:46:35.642Z,0.00
2023-03-07T01:47:35.644Z,0.00
2023-03-07T01:48:35.606Z,0.00
2023-03-07T01:49:35.645Z,0.00
2023-03-07T01:50:35.574Z,0.00
2023-03-07T01:51:35.556Z,0.00
2023-03-07T01:52:35.557Z,0.00
2023-03-07T01:53:35.521Z,0.00
2023-03-07T01:54:35.507Z,0.00
2023-03-07T01:55:35.486Z,0.00
2023-03-07T01:56:35.477Z,0.00
2023-03-07T01:57:35.485Z,0.00
2023-03-07T01:58:35.469Z,0.00
2023-03-07T01:59:35.430Z,0.00
2023-03-07T02:00:35.405Z,0.00
2023-03-07T02:01:35.430Z,0.00
2023-03-07T02:02:35.376Z,0.00
2023-03-07T02:03:35.382Z,0.00
2023-03-07T02:04:35.398Z,0.00
2023-03-07T02:05:35.320Z,0.00
2023-03-07T02:06:35.309Z,0.00
2023-03-07T02:07:35.287Z,0.00
2023-03-07T02:08:35.276Z,0.00
2023-03-07T02:09:35.255Z,0.00
2023-03-07T02:10:35.271Z,0.00
2023-03-07T02:11:35.233Z,0.00
2023-03-07T02:12:35.216Z,0.00
2023-03-07T02:13:35.188Z,0.00
2023-03-07T02:14:35.176Z,0.00
2023-03-07T02:15:35.239Z,0.00
2023-03-07T02:16:35.144Z,0.00
2023-03-07T02:17:35.130Z,0.00
2023-03-07T02:18:35.109Z,0.00
2023-03-07T02:19:35.111Z,0.00
2023-03-07T02:20:35.080Z,0.00
2023-03-07T02:21:35.058Z,0.00
2023-03-07T02:22:35.046Z,0.00
2023-03-07T02:23:35.022Z,0.00
2023-03-07T02:24:35.015Z,0.00
2023-03-07T02:25:34.991Z,0.00
2023-03-07T02:26:34.978Z,0.00
2023-03-07T02:27:34.958Z,0.00
2023-03-07T02:28:34.948Z,0.00
2023-03-07T02:29:34.929Z,0.00
2023-03-07T02:30:34.920Z,0.00
2023-03-07T02:31:34.895Z,0.00
2023-03-07T02:32:34.959Z,0.00
2023-03-07T02:33:34.873Z,0.00
2023-03-07T02:34:34.858Z,0.00
2023-03-07T02:35:34.878Z,0.00
2023-03-07T02:36:34.853Z,0.00
2023-03-07T02:37:34.804Z,0.00
2023-03-07T02:38:34.781Z,0.00
2023-03-07T02:39:34.761Z,0.00
2023-03-07T02:40:34.748Z,0.00
2023-03-07T02:41:34.733Z,0.00
2023-03-07T02:42:34.715Z,0.00
2023-03-07T02:43:34.696Z,0.00
2023-03-07T02:44:34.682Z,0.00
2023-03-07T02:45:34.663Z,0.00
2023-03-07T02:46:34.684Z,0.00
2023-03-07T02:47:34.637Z,0.00
2023-03-07T02:48:34.617Z,0.00
2023-03-07T02:49:34.602Z,0.00
2023-03-07T02:50:34.585Z,0.00
2023-03-07T02:51:34.610Z,0.00
2023-03-07T02:52:34.553Z,0.00
2023-03-07T02:53:34.531Z,0.00
2023-03-07T02:54:34.527Z,0.00
2023-03-07T02:55:34.497Z,0.00
2023-03-07T02:56:34.489Z,0.00
2023-03-07T02:57:34.470Z,0.00
2023-03-07T02:58:34.460Z,0.00
2023-03-07T02:59:34.432Z,0.00
2023-03-07T03:00:34.420Z,0.00
2023-03-07T03:01:34.413Z,0.00
2023-03-07T03:02:34.388Z,0.00
2023-03-07T03:03:34.368Z,0.00
2023-03-07T03:04:34.427Z,0.00
2023-03-07T03:05:34.339Z,0.00
2023-03-07T03:06:34.324Z,0.00
2023-03-07T03:07:34.324Z,0.00
2023-03-07T03:08:34.289Z,0.00
2023-03-07T03:09:34.272Z,0.00
2023-03-07T03:10:34.258Z,0.00
2023-03-07T03:11:34.238Z,0.00
2023-03-07T03:12:34.237Z,0.00
2023-03-07T03:13:34.206Z,0.00
2023-03-07T03:14:34.192Z,0.00
2023-03-07T03:15:34.172Z,0.00
2023-03-07T03:16:34.243Z,0.00
2023-03-07T03:17:34.149Z,0.00
2023-03-07T03:18:34.134Z,0.00
2023-03-07T03:19:34.108Z,0.00
2023-03-07T03:20:34.101Z,0.00
2023-03-07T03:21:34.077Z,0.00
2023-03-07T03:22:34.062Z,0.00
2023-03-07T03:23:34.060Z,0.00
2023-03-07T03:24:34.034Z,0.00
2023-03-07T03:25:34.010Z,0.00
2023-03-07T03:26:34.000Z,0.00
2023-03-07T03:27:33.975Z,0.00
2023-03-07T03:28:33.965Z,0.00
2023-03-07T03:29:33.943Z,0.00
2023-03-07T03:30:33.929Z,0.00
2023-03-07T03:31:34.037Z,0.00
2023-03-07T03:32:33.965Z,0.00
2023-03-07T03:33:33.874Z,0.00
2023-03-07T03:34:33.862Z,0.00
2023-03-07T03:35:33.906Z,0.00
2023-03-07T03:36:33.829Z,0.00
2023-03-07T03:37:33.810Z,0.00
2023-03-07T03:38:33.798Z,0.00
2023-03-07T03:39:33.796Z,0.00
2023-03-07T03:40:33.762Z,0.00
2023-03-07T03:41:33.743Z,0.00
2023-03-07T03:42:33.729Z,0.00
2023-03-07T03:43:33.708Z,0.00
2023-03-07T03:44:33.699Z,0.00
2023-03-07T03:45:33.677Z,0.00
2023-03-07T03:46:33.680Z,0.00
2023-03-07T03:47:33.642Z,0.00
2023-03-07T03:48:33.637Z,0.00
2023-03-07T03:49:33.610Z,0.00
2023-03-07T03:50:33.597Z,0.00
2023-03-07T03:51:33.575Z,0.00
2023-03-07T03:52:33.564Z,0.00
2023-03-07T03:53:33.543Z,0.00
2023-03-07T03:54:33.530Z,0.00
2023-03-07T03:55:33.575Z,0.00
2023-03-07T03:56:33.499Z,0.00
2023-03-07T03:57:33.489Z,0.00
2023-03-07T03:58:33.465Z,0.00
2023-03-07T03:59:33.456Z,0.00
2023-03-07T04:00:33.430Z,0.00
2023-03-07T04:01:33.412Z,0.00
2023-03-07T04:02:33.566Z,0.00
2023-03-07T04:03:33.385Z,0.00
2023-03-07T04:04:33.365Z,0.00
2023-03-07T04:05:33.343Z,0.00
2023-03-07T04:06:33.330Z,0.00
2023-03-07T04:07:33.313Z,0.00
2023-03-07T04:08:33.315Z,0.00
2023-03-07T04:09:33.291Z,0.00
2023-03-07T04:10:33.268Z,0.00
2023-03-07T04:11:33.361Z,0.00
2023-03-07T04:12:33.229Z,0.00
2023-03-07T04:13:33.210Z,0.00
2023-03-07T04:14:33.196Z,0.00
2023-03-07T04:15:33.174Z,0.00
2023-03-07T04:16:33.211Z,0.00
2023-03-07T04:17:33.144Z,0.00
2023-03-07T04:18:33.133Z,0.00
2023-03-07T04:19:33.112Z,0.00
2023-03-07T04:20:33.094Z,0.00
2023-03-07T04:21:33.078Z,0.00
2023-03-07T04:22:33.062Z,0.00
2023-03-07T04:23:33.043Z,0.00
2023-03-07T04:24:33.029Z,0.00
2023-03-07T04:25:33.049Z,0.00
2023-03-07T04:26:32.994Z,0.00
2023-03-07T04:27:32.996Z,0.00
2023-03-07T04:28:32.960Z,0.00
2023-03-07T04:29:32.941Z,0.00
2023-03-07T04:30:32.928Z,0.00
2023-03-07T04:31:32.962Z,0.00
2023-03-07T04:32:32.976Z,0.00
2023-03-07T04:33:32.874Z,0.00
2023-03-07T04:34:32.890Z,0.00
2023-03-07T04:35:32.913Z,0.00
2023-03-07T04:36:32.827Z,0.00
2023-03-07T04:37:32.807Z,0.00
2023-03-07T04:38:32.793Z,0.00
2023-03-07T04:39:32.772Z,0.00
2023-03-07T04:40:32.759Z,0.00
2023-03-07T04:41:32.760Z,0.00
2023-03-07T04:42:32.741Z,0.00
2023-03-07T04:43:32.834Z,0.00
2023-03-07T04:44:32.694Z,0.00
2023-03-07T04:45:32.678Z,0.00
2023-03-07T04:46:32.687Z,0.00
2023-03-07T04:47:32.641Z,0.00
2023-03-07T04:48:32.626Z,0.00
2023-03-07T04:49:32.609Z,0.00
2023-03-07T04:50:32.601Z,0.00
2023-03-07T04:51:32.576Z,0.00
2023-03-07T04:52:32.563Z,0.00
2023-03-07T04:53:32.542Z,0.00
2023-03-07T04:54:32.565Z,0.00
2023-03-07T04:55:32.508Z,0.00
2023-03-07T04:56:32.493Z,0.00
2023-03-07T04:57:32.485Z,0.00
2023-03-07T04:58:32.461Z,0.00
2023-03-07T04:59:32.470Z,0.00
2023-03-07T05:00:32.426Z,0.00
2023-03-07T05:01:32.435Z,0.00
2023-03-07T05:02:32.394Z,0.00
2023-03-07T05:03:32.375Z,0.00
2023-03-07T05:04:32.401Z,0.00
2023-03-07T05:05:32.344Z,0.00
2023-03-07T05:06:32.340Z,0.00
2023-03-07T05:07:32.316Z,0.00
2023-03-07T05:08:32.303Z,0.00
2023-03-07T05:09:32.277Z,0.00
2023-03-07T05:10:32.261Z,0.00
2023-03-07T05:11:32.247Z,0.00
2023-03-07T05:12:32.235Z,0.00
2023-03-07T05:13:32.223Z,0.00
2023-03-07T05:14:32.216Z,0.00
2023-03-07T05:15:32.258Z,0.00
2023-03-07T05:16:32.171Z,0.00
2023-03-07T05:17:32.181Z,0.00
2023-03-07T05:18:32.124Z,0.00
2023-03-07T05:19:32.108Z,0.00
2023-03-07T05:20:32.087Z,0.00
2023-03-07T05:21:32.083Z,0.00
2023-03-07T05:22:32.055Z,0.00
2023-03-07T05:23:32.058Z,0.00
2023-03-07T05:24:32.043Z,0.00
2023-03-07T05:25:32.007Z,0.00
2023-03-07T05:26:31.988Z,0.00
2023-03-07T05:27:31.975Z,0.00
2023-03-07T05:28:31.956Z,0.00
2023-03-07T05:29:31.940Z,0.00
2023-03-07T05:30:31.926Z,0.00
2023-03-07T05:31:32.023Z,0.00
2023-03-07T05:32:31.925Z,0.00
2023-03-07T05:33:31.883Z,0.00
2023-03-07T05:34:31.878Z,0.00
2023-03-07T05:35:31.888Z,0.00
2023-03-07T05:36:31.825Z,0.00
2023-03-07T05:37:31.818Z,0.00
2023-03-07T05:38:31.787Z,0.00
2023-03-07T05:39:31.772Z,0.00
2023-03-07T05:40:31.753Z,0.00
2023-03-07T05:41:31.738Z,4.00
2023-03-07T05:42:31.720Z,4.00
2023-03-07T05:43:31.705Z,0.00
2023-03-07T05:44:33.774Z,4.00
2023-03-07T05:45:31.672Z,4.00
2023-03-07T05:46:31.686Z,4.00
2023-03-07T05:47:31.673Z,4.00
2023-03-07T05:48:31.625Z,4.00
2023-03-07T05:49:31.616Z,4.00
2023-03-07T05:50:31.596Z,4.00
2023-03-07T05:51:31.573Z,8.00
2023-03-07T05:52:31.574Z,8.00
2023-03-07T05:53:31.546Z,12.00
2023-03-07T05:54:31.519Z,12.00
2023-03-07T05:55:31.506Z,12.00
2023-03-07T05:56:31.489Z,12.00
2023-03-07T05:57:31.474Z,16.00
2023-03-07T05:58:31.454Z,16.00
2023-03-07T05:59:31.437Z,20.00
2023-03-07T06:00:31.418Z,24.00
2023-03-07T06:01:31.405Z,20.00
2023-03-07T06:02:31.443Z,28.00
2023-03-07T06:03:31.514Z,28.00
2023-03-07T06:04:31.352Z,36.00
2023-03-07T06:05:31.349Z,36.00
2023-03-07T06:06:31.326Z,40.00
2023-03-07T06:07:31.305Z,44.00
2023-03-07T06:08:31.293Z,48.00
2023-03-07T06:09:31.275Z,52.00
2023-03-07T06:10:31.255Z,56.00
2023-03-07T06:11:31.237Z,60.00
2023-03-07T06:12:31.228Z,64.00
2023-03-07T06:13:31.209Z,68.00
2023-03-07T06:14:31.199Z,68.00
2023-03-07T06:15:31.176Z,72.00
2023-03-07T06:16:31.151Z,76.00
2023-03-07T06:17:31.137Z,84.00
2023-03-07T06:18:31.119Z,88.00
2023-03-07T06:19:31.124Z,92.00
2023-03-07T06:20:31.088Z,100.00
2023-03-07T06:21:31.069Z,108.00
2023-03-07T06:22:31.053Z,116.00
2023-03-07T06:23:31.036Z,128.00
2023-03-07T06:24:31.019Z,140.00
2023-03-07T06:25:31.010Z,152.00
2023-03-07T06:26:30.983Z,164.00
2023-03-07T06:27:30.970Z,172.00
2023-03-07T06:28:32.815Z,180.00
2023-03-07T06:29:30.939Z,188.00
2023-03-07T06:30:30.920Z,196.00
2023-03-07T06:31:31.008Z,204.00
2023-03-07T06:32:30.980Z,204.00
2023-03-07T06:33:30.874Z,208.00
2023-03-07T06:34:30.852Z,212.00
2023-03-07T06:35:30.961Z,220.00
2023-03-07T06:36:30.821Z,224.00
2023-03-07T06:37:30.804Z,232.00
2023-03-07T06:38:30.784Z,240.00
2023-03-07T06:39:31.468Z,256.00
2023-03-07T06:40:30.754Z,268.00
2023-03-07T06:41:30.747Z,284.00
2023-03-07T06:42:30.720Z,304.00
2023-03-07T06:43:30.706Z,312.00
2023-03-07T06:44:30.683Z,320.00
2023-03-07T06:45:30.713Z,320.00
2023-03-07T06:46:30.652Z,332.00
2023-03-07T06:47:30.644Z,344.00
2023-03-07T06:48:30.626Z,364.00
2023-03-07T06:49:30.618Z,376.00
2023-03-07T06:50:35.563Z,380.00
2023-03-07T06:51:30.599Z,392.00
2023-03-07T06:52:30.555Z,396.00
2023-03-07T06:53:30.544Z,392.00
2023-03-07T06:54:30.519Z,380.00
2023-03-07T06:55:30.505Z,368.00
2023-03-07T06:56:30.489Z,364.00
2023-03-07T06:57:30.477Z,360.00
2023-03-07T06:58:30.452Z,364.00
2023-03-07T06:59:30.441Z,376.00
2023-03-07T07:00:30.418Z,392.00
2023-03-07T07:01:30.406Z,408.00
2023-03-07T07:02:30.549Z,424.00
2023-03-07T07:03:30.383Z,440.00
2023-03-07T07:04:30.361Z,452.00
2023-03-07T07:05:30.341Z,468.00
2023-03-07T07:06:30.318Z,480.00
2023-03-07T07:07:30.329Z,496.00
2023-03-07T07:08:30.285Z,504.00
2023-03-07T07:09:30.275Z,512.00
2023-03-07T07:10:30.269Z,520.00
2023-03-07T07:11:30.239Z,528.00
2023-03-07T07:12:30.220Z,532.00
2023-03-07T07:13:30.207Z,540.00
2023-03-07T07:14:30.192Z,552.00
2023-03-07T07:15:30.172Z,560.00
2023-03-07T07:16:30.227Z,572.00
2023-03-07T07:17:30.139Z,584.00
2023-03-07T07:18:30.120Z,608.00
2023-03-07T07:19:30.108Z,628.00
2023-03-07T07:20:30.102Z,644.00
2023-03-07T07:21:30.073Z,676.00
2023-03-07T07:22:30.059Z,720.00
2023-03-07T07:23:30.072Z,776.00
2023-03-07T07:24:30.038Z,820.00
2023-03-07T07:25:30.010Z,848.00
2023-03-07T07:26:29.991Z,872.00
2023-03-07T07:27:30.013Z,888.00
2023-03-07T07:28:29.957Z,912.00
2023-03-07T07:29:29.942Z,932.00
2023-03-07T07:30:29.922Z,948.00
2023-03-07T07:31:29.950Z,944.00
2023-03-07T07:32:30.070Z,932.00
2023-03-07T07:33:29.912Z,932.00
2023-03-07T07:34:29.857Z,948.00
2023-03-07T07:35:29.854Z,964.00
2023-03-07T07:36:29.835Z,964.00
2023-03-07T07:37:29.813Z,948.00
2023-03-07T07:38:29.793Z,924.00
2023-03-07T07:39:29.810Z,900.00
2023-03-07T07:40:29.763Z,864.00
2023-03-07T07:41:29.757Z,840.00
2023-03-07T07:42:32.099Z,840.00
2023-03-07T07:43:29.724Z,856.00
2023-03-07T07:44:29.698Z,872.00
2023-03-07T07:45:29.692Z,896.00
2023-03-07T07:46:29.666Z,912.00
2023-03-07T07:47:29.653Z,928.00
2023-03-07T07:48:29.636Z,940.00
2023-03-07T07:49:29.624Z,948.00
2023-03-07T07:50:29.606Z,936.00
2023-03-07T07:51:29.591Z,916.00
2023-03-07T07:52:29.573Z,924.00
2023-03-07T07:53:29.559Z,948.00
2023-03-07T07:54:29.546Z,980.00
2023-03-07T07:55:29.563Z,988.00
2023-03-07T07:56:29.508Z,976.00
2023-03-07T07:57:29.502Z,992.00
2023-03-07T07:58:29.490Z,1040.00
2023-03-07T07:59:29.464Z,1064.00
2023-03-07T08:00:29.444Z,1080.00
2023-03-07T08:01:29.434Z,1120.00
2023-03-07T08:02:29.460Z,1168.00
2023-03-07T08:03:29.416Z,1212.00
2023-03-07T08:04:29.381Z,1216.00
2023-03-07T08:05:29.372Z,1204.00
2023-03-07T08:06:29.354Z,1204.00
2023-03-07T08:07:29.339Z,1208.00
2023-03-07T08:08:29.328Z,1208.00
2023-03-07T08:09:29.304Z,1232.00
2023-03-07T08:10:29.291Z,1252.00
2023-03-07T08:11:29.296Z,1276.00
2023-03-07T08:12:29.257Z,1276.00
2023-03-07T08:13:29.244Z,1268.00
2023-03-07T08:14:29.236Z,1288.00
2023-03-07T08:15:29.339Z,1316.00
2023-03-07T08:16:29.194Z,1340.00
2023-03-07T08:17:29.181Z,1340.00
2023-03-07T08:18:29.167Z,1328.00
2023-03-07T08:19:29.151Z,1328.00
2023-03-07T08:20:29.130Z,1356.00
2023-03-07T08:21:29.121Z,1400.00
2023-03-07T08:22:29.107Z,1480.00
2023-03-07T08:23:29.089Z,1560.00
2023-03-07T08:24:39.896Z,1612.00
2023-03-07T08:25:29.058Z,1636.00
2023-03-07T08:26:29.048Z,1628.00
2023-03-07T08:27:29.050Z,1576.00
2023-03-07T08:28:29.008Z,1512.00
2023-03-07T08:29:28.995Z,1464.00
2023-03-07T08:30:28.976Z,1396.00
2023-03-07T08:31:29.038Z,1252.00
2023-03-07T08:32:28.977Z,1144.00
2023-03-07T08:33:28.938Z,1116.00
2023-03-07T08:34:28.920Z,1172.00
2023-03-07T08:35:28.973Z,1264.00
2023-03-07T08:36:28.885Z,1332.00
2023-03-07T08:37:28.877Z,1400.00
2023-03-07T08:38:28.855Z,1456.00
2023-03-07T08:39:28.843Z,1524.00
2023-03-07T08:40:28.824Z,1588.00
2023-03-07T08:41:28.819Z,1612.00
2023-03-07T08:42:28.872Z,1644.00
2023-03-07T08:43:28.803Z,1696.00
2023-03-07T08:44:28.764Z,1772.00
2023-03-07T08:45:28.756Z,1840.00
2023-03-07T08:46:28.763Z,1860.00
2023-03-07T08:47:28.722Z,1880.00
2023-03-07T08:48:28.699Z,1908.00
2023-03-07T08:49:28.688Z,1976.00
2023-03-07T08:50:28.677Z,1880.00
2023-03-07T08:51:28.659Z,1936.00
2023-03-07T08:52:28.643Z,1872.00
2023-03-07T08:53:28.626Z,1900.00
2023-03-07T08:54:28.607Z,1940.00
2023-03-07T08:55:28.594Z,1956.00
2023-03-07T08:56:28.576Z,1940.00
2023-03-07T08:57:28.563Z,1936.00
2023-03-07T08:58:28.553Z,1956.00
2023-03-07T08:59:28.568Z,1968.00
2023-03-07T09:00:28.515Z,1976.00
2023-03-07T09:01:28.560Z,1988.00
2023-03-07T09:02:28.492Z,1952.00
2023-03-07T09:03:28.479Z,1908.00
2023-03-07T09:04:28.496Z,1848.00
2023-03-07T09:05:28.451Z,1724.00
2023-03-07T09:06:28.425Z,1620.00
2023-03-07T09:07:28.416Z,1552.00
2023-03-07T09:08:28.397Z,1564.00
2023-03-07T09:09:28.392Z,1652.00
2023-03-07T09:10:28.368Z,1768.00
2023-03-07T09:11:28.364Z,1852.00
2023-03-07T09:12:28.336Z,1932.00
2023-03-07T09:13:28.326Z,2000.00
2023-03-07T09:14:28.310Z,2036.00
2023-03-07T09:15:28.420Z,2036.00
2023-03-07T09:16:28.302Z,1940.00
2023-03-07T09:17:28.266Z,1936.00
2023-03-07T09:18:30.281Z,1872.00
2023-03-07T09:19:28.240Z,1912.00
2023-03-07T09:20:28.228Z,2068.00
2023-03-07T09:21:28.209Z,1868.00
2023-03-07T09:22:28.197Z,1848.00
2023-03-07T09:23:28.179Z,1880.00
2023-03-07T09:24:28.168Z,1876.00
2023-03-07T09:25:28.152Z,1760.00
2023-03-07T09:26:28.141Z,1828.00
2023-03-07T09:27:28.124Z,1868.00
2023-03-07T09:28:28.113Z,1888.00
2023-03-07T09:29:28.115Z,1840.00
2023-03-07T09:30:28.092Z,1992.00
2023-03-07T09:31:28.141Z,2260.00
2023-03-07T09:32:28.085Z,2252.00
2023-03-07T09:33:28.041Z,2308.00
2023-03-07T09:34:28.027Z,2280.00
2023-03-07T09:35:28.015Z,2264.00
2023-03-07T09:36:28.010Z,2252.00
2023-03-07T09:37:27.983Z,2260.00
2023-03-07T09:38:27.969Z,2264.00
2023-03-07T09:39:27.955Z,2244.00
2023-03-07T09:40:27.945Z,2132.00
2023-03-07T09:41:27.925Z,2264.00
2023-03-07T09:42:27.926Z,2244.00
2023-03-07T09:43:27.894Z,2212.00
2023-03-07T09:44:27.884Z,2208.00
2023-03-07T09:45:27.927Z,2232.00
2023-03-07T09:46:27.857Z,2220.00
2023-03-07T09:47:27.857Z,2212.00
2023-03-07T09:48:27.828Z,2188.00
2023-03-07T09:49:27.812Z,2208.00
2023-03-07T09:50:27.806Z,2216.00
2023-03-07T09:51:27.784Z,2208.00
2023-03-07T09:52:27.773Z,2220.00
2023-03-07T09:53:27.756Z,2224.00
2023-03-07T09:54:27.748Z,2220.00
2023-03-07T09:55:27.729Z,2204.00
2023-03-07T09:56:27.719Z,2176.00
2023-03-07T09:57:27.709Z,2172.00
2023-03-07T09:58:27.691Z,2180.00
2023-03-07T09:59:27.672Z,2180.00
2023-03-07T10:00:27.664Z,2168.00
2023-03-07T10:01:27.647Z,2176.00
2023-03-07T10:02:27.640Z,2176.00
2023-03-07T10:03:27.705Z,2188.00
2023-03-07T10:04:27.696Z,2176.00
2023-03-07T10:05:27.601Z,2156.00
2023-03-07T10:06:27.590Z,2164.00
2023-03-07T10:07:27.572Z,2172.00
2023-03-07T10:08:27.554Z,2180.00
2023-03-07T10:09:27.587Z,2196.00
2023-03-07T10:10:27.527Z,2216.00
2023-03-07T10:11:27.540Z,2196.00
2023-03-07T10:12:27.500Z,2208.00
2023-03-07T10:13:27.486Z,2220.00
2023-03-07T10:14:27.492Z,2220.00
2023-03-07T10:15:27.511Z,2244.00
2023-03-07T10:16:27.531Z,2252.00
2023-03-07T10:17:27.430Z,2256.00
2023-03-07T10:18:27.432Z,2280.00
2023-03-07T10:19:27.463Z,2264.00
2023-03-07T10:20:27.394Z,2248.00
2023-03-07T10:21:27.382Z,2276.00
2023-03-07T10:22:27.368Z,2296.00
2023-03-07T10:23:27.351Z,2280.00
2023-03-07T10:24:27.342Z,2268.00
2023-03-07T10:25:27.323Z,2280.00
2023-03-07T10:26:27.313Z,2284.00
2023-03-07T10:27:27.304Z,2336.00
2023-03-07T10:28:27.292Z,2416.00
2023-03-07T10:30:27.256Z,2328.00
2023-03-07T10:31:27.302Z,2364.00
2023-03-07T10:32:27.361Z,2376.00
2023-03-07T10:33:27.218Z,2240.00
2023-03-07T10:34:27.865Z,2332.00
2023-03-07T10:35:27.215Z,2376.00
2023-03-07T10:36:27.174Z,2404.00
2023-03-07T10:37:27.164Z,2388.00
2023-03-07T10:38:27.145Z,2368.00
2023-03-07T10:39:27.139Z,2432.00
2023-03-07T10:40:27.120Z,2476.00
2023-03-07T10:41:27.115Z,2528.00
2023-03-07T10:42:27.104Z,2208.00
2023-03-07T10:43:27.093Z,1900.00
2023-03-07T10:44:27.066Z,1848.00
2023-03-07T10:45:27.057Z,2368.00
2023-03-07T10:46:27.540Z,2392.00
2023-03-07T10:47:27.055Z,2384.00
2023-03-07T10:48:27.015Z,2424.00
2023-03-07T10:49:27.005Z,2436.00
2023-03-07T10:50:27.000Z,2420.00
2023-03-07T10:51:27.009Z,2448.00
2023-03-07T10:52:26.962Z,2408.00
2023-03-07T10:53:26.951Z,2480.00
2023-03-07T10:54:29.752Z,2620.00
2023-03-07T10:55:26.937Z,2712.00
2023-03-07T10:56:26.917Z,2700.00
2023-03-07T10:57:26.902Z,2824.00
2023-03-07T10:58:26.889Z,2844.00
2023-03-07T10:59:26.873Z,2472.00
2023-03-07T11:00:26.856Z,2688.00
2023-03-07T11:01:26.916Z,2820.00
2023-03-07T11:02:26.831Z,2896.00
2023-03-07T11:03:26.821Z,2684.00
2023-03-07T11:04:26.871Z,2808.00
2023-03-07T11:05:26.804Z,2824.00
2023-03-07T11:06:26.779Z,2920.00
2023-03-07T11:07:26.794Z,3000.00
2023-03-07T11:08:26.755Z,2848.00
2023-03-07T11:09:26.777Z,2768.00
2023-03-07T11:10:26.728Z,2820.00
2023-03-07T11:11:26.721Z,2868.00
2023-03-07T11:12:26.711Z,2888.00
2023-03-07T11:14:26.683Z,2548.00
2023-03-07T11:15:26.667Z,2464.00
2023-03-07T11:16:26.729Z,2436.00
2023-03-07T11:17:26.644Z,2788.00
2023-03-07T11:18:26.640Z,2564.00
2023-03-07T11:19:26.620Z,2496.00
2023-03-07T11:20:29.169Z,2968.00
2023-03-07T11:21:26.596Z,2972.00
2023-03-07T11:22:26.584Z,2916.00
2023-03-07T11:23:26.593Z,2916.00
2023-03-07T11:24:26.594Z,2748.00
2023-03-07T11:25:26.582Z,2764.00
2023-03-07T11:26:28.946Z,2624.00
2023-03-07T11:27:26.518Z,2532.00
2023-03-07T11:28:26.508Z,2576.00
2023-03-07T11:29:26.496Z,2480.00
2023-03-07T11:30:26.487Z,1992.00
2023-03-07T11:31:26.603Z,1772.00
2023-03-07T11:32:26.494Z,2536.00
2023-03-07T11:33:26.457Z,2588.00
2023-03-07T11:34:26.434Z,2412.00
2023-03-07T11:35:26.417Z,2476.00
2023-03-07T11:36:26.410Z,2444.00
2023-03-07T11:37:26.392Z,2456.00
2023-03-07T11:38:26.394Z,2152.00
2023-03-07T11:39:26.396Z,2412.00
2023-03-07T11:40:26.391Z,2532.00
2023-03-07T11:41:26.372Z,2580.00
2023-03-07T11:42:26.339Z,2564.00
2023-03-07T11:43:26.315Z,2560.00
2023-03-07T11:44:26.304Z,2636.00
2023-03-07T11:45:26.304Z,2836.00
2023-03-07T11:46:26.314Z,2668.00
2023-03-07T11:47:26.261Z,2588.00
2023-03-07T11:48:26.253Z,2464.00
2023-03-07T11:49:26.235Z,2448.00
2023-03-07T11:50:26.233Z,2508.00
2023-03-07T11:51:26.206Z,2724.00
2023-03-07T11:52:26.216Z,2484.00
2023-03-07T11:53:26.197Z,2756.00
2023-03-07T11:54:26.171Z,2704.00
2023-03-07T11:55:26.174Z,2888.00
2023-03-07T11:56:26.170Z,2948.00
2023-03-07T11:57:26.133Z,2856.00
2023-03-07T11:58:26.131Z,2792.00
2023-03-07T12:00:26.096Z,2508.00
2023-03-07T12:01:26.080Z,2300.00
2023-03-07T12:02:26.070Z,2508.00
2023-03-07T12:03:26.054Z,2488.00
2023-03-07T12:04:26.037Z,2528.00
2023-03-07T12:05:26.065Z,2600.00
2023-03-07T12:06:26.010Z,2580.00
2023-03-07T12:07:26.001Z,2700.00
2023-03-07T12:08:25.983Z,2704.00
2023-03-07T12:09:25.974Z,2792.00
2023-03-07T12:10:25.958Z,2824.00
2023-03-07T12:11:26.006Z,2696.00
2023-03-07T12:12:25.932Z,2784.00
2023-03-07T12:13:25.925Z,2808.00
2023-03-07T12:14:25.911Z,2624.00
2023-03-07T12:15:25.897Z,2668.00
2023-03-07T12:16:25.948Z,2492.00
2023-03-07T12:17:25.872Z,2572.00
2023-03-07T12:18:25.868Z,2176.00
2023-03-07T12:19:25.840Z,2568.00
2023-03-07T12:20:25.826Z,2520.00
2023-03-07T12:21:25.812Z,2576.00
2023-03-07T12:22:25.798Z,2608.00
2023-03-07T12:23:25.792Z,2524.00
2023-03-07T12:24:25.770Z,2632.00
2023-03-07T12:25:25.759Z,2644.00
2023-03-07T12:26:25.743Z,2728.00
2023-03-07T12:27:26.823Z,2732.00
2023-03-07T12:28:25.737Z,2548.00
2023-03-07T12:29:25.707Z,2576.00
2023-03-07T12:30:25.688Z,2248.00
2023-03-07T12:31:25.715Z,2276.00
2023-03-07T12:32:25.881Z,2216.00
2023-03-07T12:33:27.444Z,2208.00
2023-03-07T12:34:25.637Z,2020.00
2023-03-07T12:35:25.663Z,2056.00
2023-03-07T12:36:25.630Z,2096.00
2023-03-07T12:37:25.610Z,2128.00
2023-03-07T12:38:25.581Z,2192.00
2023-03-07T12:39:25.574Z,2256.00
2023-03-07T12:40:25.553Z,2240.00
2023-03-07T12:41:25.542Z,2296.00
2023-03-07T12:42:25.529Z,2384.00
2023-03-07T12:43:25.535Z,2800.00
2023-03-07T12:44:25.496Z,2640.00
2023-03-07T12:45:27.242Z,2580.00